sensor_id;sensor_type;location;lat;lon;timestamp;pressure;altitude;pressure_sealevel;temperature;humidity
49461;BME280;35355;49.198;-0.368;2024-01-16T00:01:15;100747.06;;;1.79;62.37
49461;BME280;35355;49.198;-0.368;2024-01-16T00:03:44;100737.34;;;1.78;62.37
49461;BME280;35355;49.198;-0.368;2024-01-16T00:06:12;100740.88;;;1.78;63.03
49461;BME280;35355;49.198;-0.368;2024-01-16T00:08:40;100750.41;;;1.87;62.85
49461;BME280;35355;49.198;-0.368;2024-01-16T00:11:05;100743.78;;;1.83;62.81
49461;BME280;35355;49.198;-0.368;2024-01-16T00:13:32;100751.88;;;1.90;62.86
49461;BME280;35355;49.198;-0.368;2024-01-16T00:15:58;100750.63;;;1.92;62.90
49461;BME280;35355;49.198;-0.368;2024-01-16T00:18:27;100753.31;;;1.92;62.95
49461;BME280;35355;49.198;-0.368;2024-01-16T00:21:01;100752.69;;;1.90;62.58
49461;BME280;35355;49.198;-0.368;2024-01-16T00:23:39;100750.00;;;1.84;62.29
49461;BME280;35355;49.198;-0.368;2024-01-16T00:26:05;100769.03;;;1.89;62.77
49461;BME280;35355;49.198;-0.368;2024-01-16T00:28:32;100760.56;;;1.85;62.39
49461;BME280;35355;49.198;-0.368;2024-01-16T00:31:07;100779.84;;;1.96;62.62
49461;BME280;35355;49.198;-0.368;2024-01-16T00:33:39;100762.00;;;1.95;63.18
49461;BME280;35355;49.198;-0.368;2024-01-16T00:36:05;100771.97;;;2.01;62.98
49461;BME280;35355;49.198;-0.368;2024-01-16T00:38:34;100771.38;;;2.12;63.34
49461;BME280;35355;49.198;-0.368;2024-01-16T00:41:00;100770.75;;;2.17;63.11
49461;BME280;35355;49.198;-0.368;2024-01-16T00:43:28;100784.22;;;2.17;63.06
49461;BME280;35355;49.198;-0.368;2024-01-16T00:45:54;100767.66;;;2.13;62.70
49461;BME280;35355;49.198;-0.368;2024-01-16T00:48:24;100762.47;;;2.12;62.92
49461;BME280;35355;49.198;-0.368;2024-01-16T00:50:52;100765.16;;;2.18;63.45
49461;BME280;35355;49.198;-0.368;2024-01-16T00:53:20;100768.28;;;2.22;63.20
49461;BME280;35355;49.198;-0.368;2024-01-16T00:55:46;100769.50;;;2.19;63.13
49461;BME280;35355;49.198;-0.368;2024-01-16T00:58:18;100768.25;;;2.15;62.44
49461;BME280;35355;49.198;-0.368;2024-01-16T01:00:43;100762.06;;;2.15;62.69
49461;BME280;35355;49.198;-0.368;2024-01-16T01:03:09;100761.41;;;2.13;62.27
49461;BME280;35355;49.198;-0.368;2024-01-16T01:05:38;100757.28;;;2.10;62.97
49461;BME280;35355;49.198;-0.368;2024-01-16T01:08:10;100742.56;;;2.06;62.73
49461;BME280;35355;49.198;-0.368;2024-01-16T01:10:39;100738.00;;;2.06;62.89
49461;BME280;35355;49.198;-0.368;2024-01-16T01:13:05;100748.38;;;2.09;62.77
49461;BME280;35355;49.198;-0.368;2024-01-16T01:15:31;100744.03;;;2.08;62.63
49461;BME280;35355;49.198;-0.368;2024-01-16T01:17:56;100740.50;;;2.08;62.75
49461;BME280;35355;49.198;-0.368;2024-01-16T01:20:25;100729.09;;;1.99;62.63
49461;BME280;35355;49.198;-0.368;2024-01-16T01:22:51;100737.59;;;1.96;62.39
49461;BME280;35355;49.198;-0.368;2024-01-16T01:25:19;100731.56;;;1.87;62.55
49461;BME280;35355;49.198;-0.368;2024-01-16T01:27:48;100738.00;;;1.86;62.53
49461;BME280;35355;49.198;-0.368;2024-01-16T01:30:13;100740.91;;;1.85;62.88
49461;BME280;35355;49.198;-0.368;2024-01-16T01:32:40;100737.16;;;1.79;63.11
49461;BME280;35355;49.198;-0.368;2024-01-16T01:35:06;100734.88;;;1.76;63.12
49461;BME280;35355;49.198;-0.368;2024-01-16T01:37:38;100744.59;;;1.77;62.82
49461;BME280;35355;49.198;-0.368;2024-01-16T01:40:05;100735.28;;;1.73;62.66
49461;BME280;35355;49.198;-0.368;2024-01-16T01:42:30;100742.09;;;1.69;62.34
49461;BME280;35355;49.198;-0.368;2024-01-16T01:44:58;100740.44;;;1.61;62.55
49461;BME280;35355;49.198;-0.368;2024-01-16T01:47:25;100744.09;;;1.53;62.37
49461;BME280;35355;49.198;-0.368;2024-01-16T01:49:51;100741.19;;;1.48;62.96
49461;BME280;35355;49.198;-0.368;2024-01-16T01:52:19;100732.06;;;1.36;62.36
49461;BME280;35355;49.198;-0.368;2024-01-16T01:54:45;100725.00;;;1.35;62.53
49461;BME280;35355;49.198;-0.368;2024-01-16T01:57:11;100738.72;;;1.47;62.98
49461;BME280;35355;49.198;-0.368;2024-01-16T01:59:39;100733.75;;;1.50;63.27
49461;BME280;35355;49.198;-0.368;2024-01-16T02:02:05;100723.00;;;1.50;63.88
49461;BME280;35355;49.198;-0.368;2024-01-16T02:04:31;100723.22;;;1.55;63.55
49461;BME280;35355;49.198;-0.368;2024-01-16T02:07:00;100727.19;;;1.60;63.58
49461;BME280;35355;49.198;-0.368;2024-01-16T02:09:25;100725.72;;;1.57;63.28
49461;BME280;35355;49.198;-0.368;2024-01-16T02:11:51;100725.91;;;1.55;63.62
49461;BME280;35355;49.198;-0.368;2024-01-16T02:14:16;100726.31;;;1.52;62.97
49461;BME280;35355;49.198;-0.368;2024-01-16T02:16:42;100734.16;;;1.47;62.65
49461;BME280;35355;49.198;-0.368;2024-01-16T02:19:14;100720.69;;;1.40;62.96
49461;BME280;35355;49.198;-0.368;2024-01-16T02:21:48;100729.38;;;1.43;62.80
49461;BME280;35355;49.198;-0.368;2024-01-16T02:24:15;100728.38;;;1.44;63.01
49461;BME280;35355;49.198;-0.368;2024-01-16T02:26:45;100720.28;;;1.44;63.26
49461;BME280;35355;49.198;-0.368;2024-01-16T02:29:11;100719.06;;;1.46;63.13
49461;BME280;35355;49.198;-0.368;2024-01-16T02:31:39;100717.59;;;1.50;62.99
49461;BME280;35355;49.198;-0.368;2024-01-16T02:34:05;100715.56;;;1.52;62.99
49461;BME280;35355;49.198;-0.368;2024-01-16T02:36:35;100715.13;;;1.49;63.63
49461;BME280;35355;49.198;-0.368;2024-01-16T02:39:00;100720.13;;;1.58;63.75
49461;BME280;35355;49.198;-0.368;2024-01-16T02:41:26;100717.63;;;1.57;63.79
49461;BME280;35355;49.198;-0.368;2024-01-16T02:43:52;100717.63;;;1.64;63.54
49461;BME280;35355;49.198;-0.368;2024-01-16T02:46:18;100712.88;;;1.59;62.78
49461;BME280;35355;49.198;-0.368;2024-01-16T02:48:50;100708.50;;;1.51;62.94
49461;BME280;35355;49.198;-0.368;2024-01-16T02:51:19;100707.66;;;1.44;63.14
49461;BME280;35355;49.198;-0.368;2024-01-16T02:53:47;100697.31;;;1.41;62.75
49461;BME280;35355;49.198;-0.368;2024-01-16T02:56:13;100696.50;;;1.40;63.37
49461;BME280;35355;49.198;-0.368;2024-01-16T02:58:39;100689.81;;;1.30;63.11
49461;BME280;35355;49.198;-0.368;2024-01-16T03:01:04;100695.19;;;1.30;63.22
49461;BME280;35355;49.198;-0.368;2024-01-16T03:03:30;100699.34;;;1.26;63.20
49461;BME280;35355;49.198;-0.368;2024-01-16T03:06:01;100677.97;;;1.11;63.21
49461;BME280;35355;49.198;-0.368;2024-01-16T03:08:27;100695.78;;;1.18;62.83
49461;BME280;35355;49.198;-0.368;2024-01-16T03:10:52;100683.53;;;1.09;63.27
49461;BME280;35355;49.198;-0.368;2024-01-16T03:13:21;100683.13;;;1.05;63.11
49461;BME280;35355;49.198;-0.368;2024-01-16T03:15:52;100673.19;;;1.06;62.55
49461;BME280;35355;49.198;-0.368;2024-01-16T03:18:21;100677.75;;;1.05;63.25
49461;BME280;35355;49.198;-0.368;2024-01-16T03:20:47;100665.28;;;0.91;62.82
49461;BME280;35355;49.198;-0.368;2024-01-16T03:23:13;100677.47;;;0.94;62.70
49461;BME280;35355;49.198;-0.368;2024-01-16T03:25:39;100679.97;;;0.95;62.67
49461;BME280;35355;49.198;-0.368;2024-01-16T03:28:08;100672.47;;;0.84;62.80
49461;BME280;35355;49.198;-0.368;2024-01-16T03:30:35;100680.56;;;0.91;62.91
49461;BME280;35355;49.198;-0.368;2024-01-16T03:33:02;100673.94;;;0.86;63.23
49461;BME280;35355;49.198;-0.368;2024-01-16T03:35:27;100649.06;;;0.71;63.04
49461;BME280;35355;49.198;-0.368;2024-01-16T03:37:53;100661.31;;;0.80;63.25
49461;BME280;35355;49.198;-0.368;2024-01-16T03:40:21;100642.28;;;0.82;63.01
49461;BME280;35355;49.198;-0.368;2024-01-16T03:42:47;100647.69;;;0.88;63.10
49461;BME280;35355;49.198;-0.368;2024-01-16T03:45:13;100629.47;;;0.77;63.78
49461;BME280;35355;49.198;-0.368;2024-01-16T03:47:39;100646.25;;;0.93;63.03
49461;BME280;35355;49.198;-0.368;2024-01-16T03:50:05;100628.41;;;0.78;63.56
49461;BME280;35355;49.198;-0.368;2024-01-16T03:52:31;100650.59;;;0.94;63.79
49461;BME280;35355;49.198;-0.368;2024-01-16T03:54:56;100641.28;;;0.90;63.39
49461;BME280;35355;49.198;-0.368;2024-01-16T03:57:22;100655.38;;;0.92;63.36
49461;BME280;35355;49.198;-0.368;2024-01-16T03:59:47;100643.34;;;0.87;62.84
49461;BME280;35355;49.198;-0.368;2024-01-16T04:02:16;100611.00;;;0.67;62.98
49461;BME280;35355;49.198;-0.368;2024-01-16T04:04:44;100607.53;;;0.74;63.36
49461;BME280;35355;49.198;-0.368;2024-01-16T04:07:13;100624.09;;;0.77;62.96
49461;BME280;35355;49.198;-0.368;2024-01-16T04:09:44;100641.81;;;0.72;63.38
49461;BME280;35355;49.198;-0.368;2024-01-16T04:12:09;100627.34;;;0.66;63.12
49461;BME280;35355;49.198;-0.368;2024-01-16T04:14:36;100611.41;;;0.58;62.93
49461;BME280;35355;49.198;-0.368;2024-01-16T04:17:05;100615.56;;;0.67;63.23
49461;BME280;35355;49.198;-0.368;2024-01-16T04:19:33;100626.31;;;0.74;63.47
49461;BME280;35355;49.198;-0.368;2024-01-16T04:22:01;100626.94;;;0.69;63.45
49461;BME280;35355;49.198;-0.368;2024-01-16T04:24:31;100629.47;;;0.77;63.62
49461;BME280;35355;49.198;-0.368;2024-01-16T04:26:56;100609.72;;;0.57;63.21
49461;BME280;35355;49.198;-0.368;2024-01-16T04:29:22;100627.13;;;0.67;62.97
49461;BME280;35355;49.198;-0.368;2024-01-16T04:31:51;100616.84;;;0.71;63.93
49461;BME280;35355;49.198;-0.368;2024-01-16T04:34:16;100621.59;;;0.76;64.24
49461;BME280;35355;49.198;-0.368;2024-01-16T04:36:42;100599.44;;;0.67;63.56
49461;BME280;35355;49.198;-0.368;2024-01-16T04:39:08;100601.13;;;0.68;63.43
49461;BME280;35355;49.198;-0.368;2024-01-16T04:41:34;100607.97;;;0.77;63.98
49461;BME280;35355;49.198;-0.368;2024-01-16T04:44:03;100617.28;;;0.81;63.67
49461;BME280;35355;49.198;-0.368;2024-01-16T04:46:40;100613.97;;;0.79;64.02
49461;BME280;35355;49.198;-0.368;2024-01-16T04:49:05;100610.22;;;0.74;63.52
49461;BME280;35355;49.198;-0.368;2024-01-16T04:51:37;100621.41;;;0.77;63.53
49461;BME280;35355;49.198;-0.368;2024-01-16T04:54:06;100621.41;;;0.77;64.12
49461;BME280;35355;49.198;-0.368;2024-01-16T04:56:32;100608.78;;;0.71;63.59
49461;BME280;35355;49.198;-0.368;2024-01-16T04:58:58;100618.06;;;0.75;63.14
49461;BME280;35355;49.198;-0.368;2024-01-16T05:01:24;100613.69;;;0.67;63.35
49461;BME280;35355;49.198;-0.368;2024-01-16T05:03:50;100625.47;;;0.66;63.19
49461;BME280;35355;49.198;-0.368;2024-01-16T05:06:25;100621.34;;;0.64;63.87
49461;BME280;35355;49.198;-0.368;2024-01-16T05:08:52;100619.28;;;0.66;63.53
49461;BME280;35355;49.198;-0.368;2024-01-16T05:11:18;100623.84;;;0.72;63.78
49461;BME280;35355;49.198;-0.368;2024-01-16T05:13:44;100616.63;;;0.73;63.79
49461;BME280;35355;49.198;-0.368;2024-01-16T05:16:16;100619.91;;;0.68;63.24
49461;BME280;35355;49.198;-0.368;2024-01-16T05:18:47;100617.22;;;0.68;63.20
49461;BME280;35355;49.198;-0.368;2024-01-16T05:21:16;100606.03;;;0.64;63.92
49461;BME280;35355;49.198;-0.368;2024-01-16T05:23:41;100600.22;;;0.54;63.53
49461;BME280;35355;49.198;-0.368;2024-01-16T05:26:09;100599.38;;;0.54;63.79
49461;BME280;35355;49.198;-0.368;2024-01-16T05:28:35;100605.16;;;0.50;64.11
49461;BME280;35355;49.198;-0.368;2024-01-16T05:31:04;100607.19;;;0.48;63.34
49461;BME280;35355;49.198;-0.368;2024-01-16T05:33:30;100579.06;;;0.38;63.23
49461;BME280;35355;49.198;-0.368;2024-01-16T05:35:59;100575.94;;;0.34;63.58
49461;BME280;35355;49.198;-0.368;2024-01-16T05:38:24;100605.56;;;0.54;64.03
49461;BME280;35355;49.198;-0.368;2024-01-16T05:40:58;100602.06;;;0.54;63.78
49461;BME280;35355;49.198;-0.368;2024-01-16T05:43:27;100598.81;;;0.65;63.67
49461;BME280;35355;49.198;-0.368;2024-01-16T05:45:54;100577.72;;;0.62;64.36
49461;BME280;35355;49.198;-0.368;2024-01-16T05:48:20;100594.09;;;0.74;64.74
49461;BME280;35355;49.198;-0.368;2024-01-16T05:50:46;100572.34;;;0.62;64.04
49461;BME280;35355;49.198;-0.368;2024-01-16T05:53:14;100596.56;;;0.75;63.92
49461;BME280;35355;49.198;-0.368;2024-01-16T05:55:41;100595.34;;;0.71;63.56
49461;BME280;35355;49.198;-0.368;2024-01-16T05:58:06;100601.13;;;0.68;63.95
49461;BME280;35355;49.198;-0.368;2024-01-16T06:00:32;100581.22;;;0.56;64.22
49461;BME280;35355;49.198;-0.368;2024-01-16T06:02:59;100591.53;;;0.59;64.09
49461;BME280;35355;49.198;-0.368;2024-01-16T06:05:25;100587.91;;;0.73;64.17
49461;BME280;35355;49.198;-0.368;2024-01-16T06:07:53;100570.75;;;0.74;64.76
49461;BME280;35355;49.198;-0.368;2024-01-16T06:10:22;100565.16;;;0.69;64.46
49461;BME280;35355;49.198;-0.368;2024-01-16T06:12:47;100561.25;;;0.78;64.49
49461;BME280;35355;49.198;-0.368;2024-01-16T06:15:13;100567.50;;;0.92;64.78
49461;BME280;35355;49.198;-0.368;2024-01-16T06:17:39;100575.56;;;0.99;64.63
49461;BME280;35355;49.198;-0.368;2024-01-16T06:20:07;100583.25;;;1.02;64.70
49461;BME280;35355;49.198;-0.368;2024-01-16T06:22:36;100576.66;;;1.11;64.72
49461;BME280;35355;49.198;-0.368;2024-01-16T06:25:03;100564.25;;;1.10;64.57
49461;BME280;35355;49.198;-0.368;2024-01-16T06:27:28;100563.22;;;1.11;64.62
49461;BME280;35355;49.198;-0.368;2024-01-16T06:29:55;100548.94;;;1.04;64.54
49461;BME280;35355;49.198;-0.368;2024-01-16T06:32:21;100551.00;;;1.02;63.84
49461;BME280;35355;49.198;-0.368;2024-01-16T06:34:47;100555.75;;;1.07;63.93
49461;BME280;35355;49.198;-0.368;2024-01-16T06:37:15;100561.16;;;1.20;64.01
49461;BME280;35355;49.198;-0.368;2024-01-16T06:39:41;100530.72;;;1.06;63.73
49461;BME280;35355;49.198;-0.368;2024-01-16T06:42:08;100551.63;;;1.17;63.84
49461;BME280;35355;49.198;-0.368;2024-01-16T06:44:35;100553.47;;;1.10;63.66
49461;BME280;35355;49.198;-0.368;2024-01-16T06:47:00;100547.69;;;1.07;63.54
49461;BME280;35355;49.198;-0.368;2024-01-16T06:49:29;100547.66;;;1.00;63.58
49461;BME280;35355;49.198;-0.368;2024-01-16T06:51:55;100560.25;;;0.93;63.15
49461;BME280;35355;49.198;-0.368;2024-01-16T06:54:23;100552.41;;;0.84;63.12
49461;BME280;35355;49.198;-0.368;2024-01-16T06:56:49;100554.25;;;0.84;63.79
49461;BME280;35355;49.198;-0.368;2024-01-16T06:59:18;100554.44;;;0.82;63.72
49461;BME280;35355;49.198;-0.368;2024-01-16T07:01:45;100561.50;;;0.90;63.68
49461;BME280;35355;49.198;-0.368;2024-01-16T07:04:11;100537.06;;;0.78;64.07
49461;BME280;35355;49.198;-0.368;2024-01-16T07:06:41;100537.31;;;0.83;64.13
49461;BME280;35355;49.198;-0.368;2024-01-16T07:09:06;100537.50;;;0.88;64.03
49461;BME280;35355;49.198;-0.368;2024-01-16T07:11:39;100545.63;;;1.02;63.77
49461;BME280;35355;49.198;-0.368;2024-01-16T07:14:09;100535.06;;;0.94;64.58
49461;BME280;35355;49.198;-0.368;2024-01-16T07:16:35;100547.69;;;1.07;64.50
49461;BME280;35355;49.198;-0.368;2024-01-16T07:19:03;100537.56;;;1.02;64.50
49461;BME280;35355;49.198;-0.368;2024-01-16T07:21:34;100533.81;;;1.03;63.57
49461;BME280;35355;49.198;-0.368;2024-01-16T07:24:00;100546.25;;;1.04;63.87
49461;BME280;35355;49.198;-0.368;2024-01-16T07:26:26;100540.88;;;1.04;63.99
49461;BME280;35355;49.198;-0.368;2024-01-16T07:28:54;100549.13;;;1.02;64.30
49461;BME280;35355;49.198;-0.368;2024-01-16T07:31:20;100553.03;;;1.00;64.16
49461;BME280;35355;49.198;-0.368;2024-01-16T07:33:48;100546.00;;;0.92;63.70
49461;BME280;35355;49.198;-0.368;2024-01-16T07:36:14;100559.03;;;0.95;63.58
49461;BME280;35355;49.198;-0.368;2024-01-16T07:38:42;100541.66;;;0.84;62.97
49461;BME280;35355;49.198;-0.368;2024-01-16T07:41:07;100546.38;;;0.76;63.28
49461;BME280;35355;49.198;-0.368;2024-01-16T07:43:33;100564.97;;;0.77;63.31
49461;BME280;35355;49.198;-0.368;2024-01-16T07:45:59;100561.44;;;0.70;63.47
49461;BME280;35355;49.198;-0.368;2024-01-16T07:48:28;100567.84;;;0.69;63.74
49461;BME280;35355;49.198;-0.368;2024-01-16T07:50:57;100562.06;;;0.72;63.66
49461;BME280;35355;49.198;-0.368;2024-01-16T07:53:28;100552.75;;;0.68;64.16
49461;BME280;35355;49.198;-0.368;2024-01-16T07:55:54;100563.09;;;0.71;63.51
49461;BME280;35355;49.198;-0.368;2024-01-16T07:58:23;100563.25;;;0.63;63.11
49461;BME280;35355;49.198;-0.368;2024-01-16T08:00:51;100560.78;;;0.61;63.73
49461;BME280;35355;49.198;-0.368;2024-01-16T08:03:19;100551.84;;;0.47;63.93
49461;BME280;35355;49.198;-0.368;2024-01-16T08:05:45;100555.59;;;0.60;63.89
49461;BME280;35355;49.198;-0.368;2024-01-16T08:08:14;100553.31;;;0.57;63.17
49461;BME280;35355;49.198;-0.368;2024-01-16T08:10:45;100553.94;;;0.59;63.85
49461;BME280;35355;49.198;-0.368;2024-01-16T08:13:11;100544.41;;;0.49;64.01
49461;BME280;35355;49.198;-0.368;2024-01-16T08:15:40;100520.41;;;0.41;64.05
49461;BME280;35355;49.198;-0.368;2024-01-16T08:18:05;100549.22;;;0.61;63.72
49461;BME280;35355;49.198;-0.368;2024-01-16T08:20:32;100552.13;;;0.66;64.21
49461;BME280;35355;49.198;-0.368;2024-01-16T08:23:00;100541.78;;;0.63;63.83
49461;BME280;35355;49.198;-0.368;2024-01-16T08:25:26;100538.72;;;0.73;64.17
49461;BME280;35355;49.198;-0.368;2024-01-16T08:27:52;100538.53;;;0.74;64.49
49461;BME280;35355;49.198;-0.368;2024-01-16T08:30:17;100536.84;;;0.73;63.68
49461;BME280;35355;49.198;-0.368;2024-01-16T08:32:43;100541.63;;;0.71;64.08
49461;BME280;35355;49.198;-0.368;2024-01-16T08:35:15;100552.31;;;0.64;63.80
49461;BME280;35355;49.198;-0.368;2024-01-16T08:37:43;100556.63;;;0.59;63.36
49461;BME280;35355;49.198;-0.368;2024-01-16T08:40:09;100541.47;;;0.44;62.84
49461;BME280;35355;49.198;-0.368;2024-01-16T08:42:36;100553.06;;;0.45;63.60
49461;BME280;35355;49.198;-0.368;2024-01-16T08:45:05;100525.72;;;0.28;63.06
49461;BME280;35355;49.198;-0.368;2024-01-16T08:47:42;100546.78;;;0.31;62.97
49461;BME280;35355;49.198;-0.368;2024-01-16T08:50:07;100523.63;;;0.16;63.20
49461;BME280;35355;49.198;-0.368;2024-01-16T08:52:35;100539.59;;;0.31;63.28
49461;BME280;35355;49.198;-0.368;2024-01-16T08:55:01;100526.56;;;0.28;63.81
49461;BME280;35355;49.198;-0.368;2024-01-16T08:57:27;100517.84;;;0.26;63.11
49461;BME280;35355;49.198;-0.368;2024-01-16T08:59:52;100526.16;;;0.31;63.88
49461;BME280;35355;49.198;-0.368;2024-01-16T09:02:20;100514.38;;;0.32;63.46
49461;BME280;35355;49.198;-0.368;2024-01-16T09:04:46;100525.56;;;0.43;64.25
49461;BME280;35355;49.198;-0.368;2024-01-16T09:07:13;100529.75;;;0.52;64.77
49461;BME280;35355;49.198;-0.368;2024-01-16T09:09:48;100530.00;;;0.64;64.50
49461;BME280;35355;49.198;-0.368;2024-01-16T09:12:20;100527.13;;;0.72;65.01
49461;BME280;35355;49.198;-0.368;2024-01-16T09:14:45;100535.88;;;0.87;64.92
49461;BME280;35355;49.198;-0.368;2024-01-16T09:17:14;100538.34;;;0.96;65.03
49461;BME280;35355;49.198;-0.368;2024-01-16T09:19:45;100531.38;;;1.08;65.15
49461;BME280;35355;49.198;-0.368;2024-01-16T09:22:13;100525.16;;;1.21;64.59
49461;BME280;35355;49.198;-0.368;2024-01-16T09:24:41;100515.66;;;1.25;64.83
49461;BME280;35355;49.198;-0.368;2024-01-16T09:27:07;100512.78;;;1.33;64.59
49461;BME280;35355;49.198;-0.368;2024-01-16T09:29:38;100528.09;;;1.46;64.45
49461;BME280;35355;49.198;-0.368;2024-01-16T09:32:06;100523.31;;;1.55;64.22
49461;BME280;35355;49.198;-0.368;2024-01-16T09:34:31;100521.66;;;1.61;64.00
49461;BME280;35355;49.198;-0.368;2024-01-16T09:36:57;100528.91;;;1.73;64.41
49461;BME280;35355;49.198;-0.368;2024-01-16T09:39:29;100534.28;;;1.80;63.90
49461;BME280;35355;49.198;-0.368;2024-01-16T09:41:59;100529.69;;;1.87;63.98
49461;BME280;35355;49.198;-0.368;2024-01-16T09:44:27;100528.88;;;1.93;63.75
49461;BME280;35355;49.198;-0.368;2024-01-16T09:46:54;100533.63;;;1.98;64.05
49461;BME280;35355;49.198;-0.368;2024-01-16T09:49:21;100525.13;;;2.01;63.75
49461;BME280;35355;49.198;-0.368;2024-01-16T09:51:46;100528.00;;;2.06;64.00
49461;BME280;35355;49.198;-0.368;2024-01-16T09:54:12;100524.69;;;2.11;63.79
49461;BME280;35355;49.198;-0.368;2024-01-16T09:56:48;100525.91;;;2.15;63.88
49461;BME280;35355;49.198;-0.368;2024-01-16T09:59:17;100523.44;;;2.20;64.01
49461;BME280;35355;49.198;-0.368;2024-01-16T10:01:45;100516.78;;;2.23;63.77
49461;BME280;35355;49.198;-0.368;2024-01-16T10:04:22;100509.53;;;2.23;63.21
49461;BME280;35355;49.198;-0.368;2024-01-16T10:06:55;100506.44;;;2.20;63.35
49461;BME280;35355;49.198;-0.368;2024-01-16T10:09:22;100520.69;;;2.34;63.16
49461;BME280;35355;49.198;-0.368;2024-01-16T10:11:48;100521.72;;;2.39;63.14
49461;BME280;35355;49.198;-0.368;2024-01-16T10:14:24;100520.69;;;2.34;63.19
49461;BME280;35355;49.198;-0.368;2024-01-16T10:17:03;100507.66;;;2.31;63.45
49461;BME280;35355;49.198;-0.368;2024-01-16T10:19:53;100526.25;;;2.45;63.25
49461;BME280;35355;49.198;-0.368;2024-01-16T10:22:24;100506.16;;;2.35;63.07
49461;BME280;35355;49.198;-0.368;2024-01-16T10:25:07;100510.72;;;2.41;63.16
49461;BME280;35355;49.198;-0.368;2024-01-16T10:27:38;100524.16;;;2.54;62.81
49461;BME280;35355;49.198;-0.368;2024-01-16T10:30:06;100533.84;;;2.62;63.17
49461;BME280;35355;49.198;-0.368;2024-01-16T10:32:37;100535.28;;;2.65;63.37
49461;BME280;35355;49.198;-0.368;2024-01-16T10:35:10;100538.16;;;2.70;62.83
49461;BME280;35355;49.198;-0.368;2024-01-16T10:37:44;100523.66;;;2.71;63.20
49461;BME280;35355;49.198;-0.368;2024-01-16T10:40:14;100536.03;;;2.78;62.69
49461;BME280;35355;49.198;-0.368;2024-01-16T10:42:40;100526.94;;;2.79;62.77
49461;BME280;35355;49.198;-0.368;2024-01-16T10:45:06;100514.88;;;2.82;62.85
49461;BME280;35355;49.198;-0.368;2024-01-16T10:47:32;100515.25;;;2.92;62.83
49461;BME280;35355;49.198;-0.368;2024-01-16T10:50:04;100511.84;;;3.04;62.93
49461;BME280;35355;49.198;-0.368;2024-01-16T10:52:33;100508.59;;;3.20;62.91
49461;BME280;35355;49.198;-0.368;2024-01-16T10:55:00;100507.09;;;3.31;62.79
49461;BME280;35355;49.198;-0.368;2024-01-16T10:57:31;100502.25;;;3.40;62.56
49461;BME280;35355;49.198;-0.368;2024-01-16T11:00:04;100500.53;;;3.45;62.79
49461;BME280;35355;49.198;-0.368;2024-01-16T11:05:25;100496.69;;;3.60;62.20
49461;BME280;35355;49.198;-0.368;2024-01-16T11:07:54;100497.06;;;3.63;62.09
49461;BME280;35355;49.198;-0.368;2024-01-16T11:10:21;100487.31;;;3.62;61.94
49461;BME280;35355;49.198;-0.368;2024-01-16T11:12:47;100489.94;;;3.69;62.25
49461;BME280;35355;49.198;-0.368;2024-01-16T11:15:16;100482.25;;;3.73;61.85
49461;BME280;35355;49.198;-0.368;2024-01-16T11:17:44;100474.97;;;3.73;61.60
49461;BME280;35355;49.198;-0.368;2024-01-16T11:20:11;100478.28;;;3.75;61.29
49461;BME280;35355;49.198;-0.368;2024-01-16T11:22:40;100473.69;;;3.76;61.22
49461;BME280;35355;49.198;-0.368;2024-01-16T11:25:13;100472.19;;;3.80;61.75
49461;BME280;35355;49.198;-0.368;2024-01-16T11:27:41;100466.34;;;3.83;61.56
49461;BME280;35355;49.198;-0.368;2024-01-16T11:30:08;100470.50;;;3.85;61.04
49461;BME280;35355;49.198;-0.368;2024-01-16T11:35:02;100460.06;;;3.89;60.58
49461;BME280;35355;49.198;-0.368;2024-01-16T11:37:31;100455.84;;;3.93;60.80
49461;BME280;35355;49.198;-0.368;2024-01-16T11:42:43;100443.56;;;3.97;60.48
49461;BME280;35355;49.198;-0.368;2024-01-16T11:50:36;100424.78;;;4.02;60.31
49461;BME280;35355;49.198;-0.368;2024-01-16T11:53:02;100421.63;;;4.06;60.50
49461;BME280;35355;49.198;-0.368;2024-01-16T11:55:32;100416.63;;;4.09;60.36
49461;BME280;35355;49.198;-0.368;2024-01-16T12:00:50;100397.84;;;4.14;59.72
49461;BME280;35355;49.198;-0.368;2024-01-16T12:03:24;100382.25;;;4.16;59.71
49461;BME280;35355;49.198;-0.368;2024-01-16T12:05:59;100391.28;;;4.22;59.73
49461;BME280;35355;49.198;-0.368;2024-01-16T12:08:25;100391.91;;;4.24;59.44
49461;BME280;35355;49.198;-0.368;2024-01-16T12:10:51;100391.81;;;4.31;59.33
49461;BME280;35355;49.198;-0.368;2024-01-16T12:13:19;100392.19;;;4.34;59.35
49461;BME280;35355;49.198;-0.368;2024-01-16T12:15:45;100371.34;;;4.23;59.32
49461;BME280;35355;49.198;-0.368;2024-01-16T12:18:18;100373.50;;;4.33;59.37
49461;BME280;35355;49.198;-0.368;2024-01-16T12:20:43;100367.41;;;4.37;58.63
49461;BME280;35355;49.198;-0.368;2024-01-16T12:23:09;100370.22;;;4.43;58.88
49461;BME280;35355;49.198;-0.368;2024-01-16T12:25:38;100365.44;;;4.45;59.30
49461;BME280;35355;49.198;-0.368;2024-01-16T12:28:07;100358.97;;;4.46;58.53
49461;BME280;35355;49.198;-0.368;2024-01-16T12:30:37;100350.03;;;4.45;58.38
49461;BME280;35355;49.198;-0.368;2024-01-16T12:33:10;100347.72;;;4.49;58.73
49461;BME280;35355;49.198;-0.368;2024-01-16T12:35:41;100348.28;;;4.51;58.42
49461;BME280;35355;49.198;-0.368;2024-01-16T12:38:14;100346.19;;;4.53;58.55
49461;BME280;35355;49.198;-0.368;2024-01-16T12:40:44;100348.66;;;4.54;58.61
49461;BME280;35355;49.198;-0.368;2024-01-16T12:43:11;100324.31;;;4.54;57.91
49461;BME280;35355;49.198;-0.368;2024-01-16T12:45:38;100315.88;;;4.51;58.06
49461;BME280;35355;49.198;-0.368;2024-01-16T12:48:03;100311.66;;;4.55;57.88
49461;BME280;35355;49.198;-0.368;2024-01-16T12:50:35;100306.59;;;4.59;57.82
49461;BME280;35355;49.198;-0.368;2024-01-16T12:53:11;100288.84;;;4.63;58.26
49461;BME280;35355;49.198;-0.368;2024-01-16T12:55:39;100287.56;;;4.65;56.93
49461;BME280;35355;49.198;-0.368;2024-01-16T12:58:21;100278.38;;;4.66;58.20
49461;BME280;35355;49.198;-0.368;2024-01-16T13:00:54;100278.16;;;4.68;57.04
49461;BME280;35355;49.198;-0.368;2024-01-16T13:03:33;100281.47;;;4.70;58.16
49461;BME280;35355;49.198;-0.368;2024-01-16T13:05:59;100264.41;;;4.69;57.51
49461;BME280;35355;49.198;-0.368;2024-01-16T13:08:26;100254.06;;;4.66;57.10
49461;BME280;35355;49.198;-0.368;2024-01-16T13:11:06;100255.13;;;4.65;58.06